createdAt,value
2019-04-10T00:00:12.642Z,47.67
2019-04-10T00:01:12.364Z,47.67
2019-04-10T00:02:13.261Z,47.67
2019-04-10T00:03:25.712Z,47.67
2019-04-10T00:04:21.190Z,47.58
2019-04-10T00:05:12.325Z,47.58
2019-04-10T00:06:15.246Z,47.58
2019-04-10T00:07:16.467Z,47.58
2019-04-10T00:08:14.303Z,47.58
2019-04-10T00:09:12.288Z,47.47
2019-04-10T00:10:12.268Z,47.47
2019-04-10T00:11:12.340Z,47.47
2019-04-10T00:12:12.256Z,47.47
2019-04-10T00:13:12.244Z,47.47
2019-04-10T00:14:12.391Z,47.47
2019-04-10T00:15:12.951Z,47.38
2019-04-10T00:16:12.211Z,47.38
2019-04-10T00:17:13.140Z,47.38
2019-04-10T00:18:12.190Z,47.38
2019-04-10T00:19:12.768Z,47.38
2019-04-10T00:20:12.165Z,47.27
2019-04-10T00:21:14.023Z,47.38
2019-04-10T00:22:12.144Z,47.38
2019-04-10T00:23:13.160Z,47.38
2019-04-10T00:24:12.122Z,47.38
2019-04-10T00:25:12.654Z,47.38
2019-04-10T00:26:13.129Z,47.27
2019-04-10T00:27:12.449Z,47.27
2019-04-10T00:28:12.079Z,47.27
2019-04-10T00:29:12.072Z,47.30
2019-04-10T00:30:13.113Z,47.27
2019-04-10T00:31:12.047Z,47.27
2019-04-10T00:32:12.064Z,47.27
2019-04-10T00:33:12.331Z,47.19
2019-04-10T00:34:12.013Z,46.89
2019-04-10T00:35:12.933Z,47.19
2019-04-10T00:36:12.194Z,47.19
2019-04-10T00:37:21.842Z,47.19
2019-04-10T00:38:13.577Z,47.19
2019-04-10T00:39:12.623Z,47.30
2019-04-10T00:40:12.061Z,47.30
2019-04-10T00:41:12.158Z,47.30
2019-04-10T00:42:12.644Z,47.30
2019-04-10T00:43:12.752Z,47.30
2019-04-10T00:44:11.921Z,47.19
2019-04-10T00:45:11.893Z,47.27
2019-04-10T00:46:11.883Z,47.38
2019-04-10T00:47:12.801Z,47.27
2019-04-10T00:48:12.023Z,47.27
2019-04-10T00:49:11.853Z,47.38
2019-04-10T00:50:12.607Z,47.17
2019-04-10T00:51:12.028Z,47.17
2019-04-10T00:52:12.143Z,47.07
2019-04-10T00:53:12.761Z,47.07
2019-04-10T00:54:11.961Z,46.97
2019-04-10T00:55:11.784Z,46.97
2019-04-10T00:56:12.465Z,47.09
2019-04-10T00:57:12.642Z,46.97
2019-04-10T00:58:12.101Z,47.07
2019-04-10T00:59:12.205Z,47.00
2019-04-10T01:00:12.594Z,47.00
2019-04-10T01:01:11.853Z,47.00
2019-04-10T01:02:12.193Z,46.89
2019-04-10T01:03:11.703Z,46.89
2019-04-10T01:04:12.360Z,46.89
2019-04-10T01:05:11.706Z,46.89
2019-04-10T01:06:11.665Z,46.89
2019-04-10T01:07:12.668Z,46.89
2019-04-10T01:08:12.648Z,46.89
2019-04-10T01:09:11.663Z,46.89
2019-04-10T01:10:12.225Z,46.89
2019-04-10T01:11:11.765Z,46.80
2019-04-10T01:12:11.871Z,46.89
2019-04-10T01:13:12.414Z,46.89
2019-04-10T01:14:11.700Z,46.80
2019-04-10T01:15:12.079Z,46.80
2019-04-10T01:16:11.558Z,46.80
2019-04-10T01:17:11.755Z,46.80
2019-04-10T01:18:11.544Z,46.80
2019-04-10T01:19:12.073Z,46.80
2019-04-10T01:20:11.523Z,46.80
2019-04-10T01:21:12.464Z,46.89
2019-04-10T01:22:11.499Z,46.80
2019-04-10T01:23:11.923Z,46.80
2019-04-10T01:24:11.473Z,46.89
2019-04-10T01:25:12.385Z,46.89
2019-04-10T01:26:12.550Z,46.80
2019-04-10T01:27:11.759Z,46.80
2019-04-10T01:28:12.260Z,46.80
2019-04-10T01:29:11.425Z,46.69
2019-04-10T01:30:11.416Z,46.69
2019-04-10T01:31:11.403Z,46.80
2019-04-10T01:32:11.994Z,46.80
2019-04-10T01:33:12.348Z,46.80
2019-04-10T01:34:11.492Z,46.80
2019-04-10T01:35:11.364Z,46.69
2019-04-10T01:36:11.351Z,46.80
2019-04-10T01:37:12.375Z,46.80
2019-04-10T01:38:11.361Z,46.69
2019-04-10T01:39:11.317Z,46.69
2019-04-10T01:40:11.306Z,46.69
2019-04-10T01:41:11.885Z,46.69
2019-04-10T01:42:12.174Z,46.69
2019-04-10T01:43:16.844Z,46.80
2019-04-10T01:44:13.183Z,46.80
2019-04-10T01:45:11.401Z,46.69
2019-04-10T01:46:11.241Z,46.69
2019-04-10T01:47:11.231Z,46.69
2019-04-10T01:48:12.090Z,46.69
2019-04-10T01:49:11.422Z,46.69
2019-04-10T01:50:11.192Z,46.69
2019-04-10T01:51:11.191Z,46.69
2019-04-10T01:52:11.176Z,46.69
2019-04-10T01:53:11.343Z,46.69
2019-04-10T01:54:11.188Z,46.59
2019-04-10T01:55:21.128Z,46.59
2019-04-10T01:56:22.996Z,46.69
2019-04-10T01:57:13.139Z,46.59
2019-04-10T01:58:11.109Z,46.59
2019-04-10T01:59:11.845Z,46.59
2019-04-10T02:00:11.155Z,46.59
2019-04-10T02:01:11.295Z,46.59
2019-04-10T02:02:11.083Z,46.59
2019-04-10T02:03:11.878Z,46.59
2019-04-10T02:04:11.044Z,46.49
2019-04-10T02:05:11.063Z,46.59
2019-04-10T02:06:11.321Z,46.49
2019-04-10T02:07:11.013Z,46.59
2019-04-10T02:08:13.559Z,46.59
2019-04-10T02:09:11.068Z,46.59
2019-04-10T02:10:11.980Z,46.69
2019-04-10T02:11:11.004Z,46.69
2019-04-10T02:12:10.966Z,46.69
2019-04-10T02:13:11.502Z,46.69
2019-04-10T02:14:12.036Z,46.80
2019-04-10T02:15:13.933Z,46.89
2019-04-10T02:16:10.917Z,46.89
2019-04-10T02:17:10.937Z,47.00
2019-04-10T02:18:10.990Z,47.00
2019-04-10T02:19:10.893Z,47.09
2019-04-10T02:20:10.870Z,47.09
2019-04-10T02:21:11.581Z,47.19
2019-04-10T02:22:11.766Z,47.19
2019-04-10T02:23:10.844Z,47.30
2019-04-10T02:24:11.147Z,47.30
2019-04-10T02:25:11.600Z,47.30
2019-04-10T02:26:11.546Z,47.39
2019-04-10T02:27:11.052Z,47.39
2019-04-10T02:28:11.029Z,47.50
2019-04-10T02:29:11.340Z,47.50
2019-04-10T02:30:12.750Z,47.50
2019-04-10T02:31:12.355Z,47.60
2019-04-10T02:32:12.052Z,47.60
2019-04-10T02:33:10.879Z,47.60
2019-04-10T02:34:10.728Z,47.70
2019-04-10T02:35:14.517Z,47.70
2019-04-10T02:36:13.019Z,47.70
2019-04-10T02:37:11.111Z,47.80
2019-04-10T02:38:27.328Z,47.80
2019-04-10T02:39:23.083Z,47.90
2019-04-10T02:40:12.731Z,47.90
2019-04-10T02:41:12.073Z,47.90
2019-04-10T02:42:10.866Z,47.90
2019-04-10T02:43:12.433Z,48.00
2019-04-10T02:44:12.035Z,48.00
2019-04-10T02:45:12.313Z,48.00
2019-04-10T02:46:11.411Z,48.10
2019-04-10T02:47:10.592Z,48.10
2019-04-10T02:48:12.185Z,48.10
2019-04-10T02:49:12.122Z,48.10
2019-04-10T02:50:12.483Z,48.10
2019-04-10T02:51:10.541Z,48.10
2019-04-10T02:52:11.061Z,48.20
2019-04-10T02:53:10.967Z,48.20
2019-04-10T02:54:11.429Z,48.20
2019-04-10T02:55:11.903Z,48.20
2019-04-10T02:56:11.791Z,48.30
2019-04-10T02:57:11.399Z,48.30
2019-04-10T02:58:10.569Z,48.30
2019-04-10T02:59:11.227Z,48.30
2019-04-10T03:00:12.752Z,48.30
2019-04-10T03:01:11.256Z,48.30
2019-04-10T03:02:11.649Z,48.30
2019-04-10T03:03:11.877Z,48.30
2019-04-10T03:04:11.886Z,48.40
2019-04-10T03:05:10.813Z,48.40
2019-04-10T03:06:11.507Z,48.40
2019-04-10T03:07:11.585Z,48.40
2019-04-10T03:08:11.252Z,48.50
2019-04-10T03:09:28.960Z,48.50
2019-04-10T03:10:20.451Z,48.40
2019-04-10T03:11:12.343Z,48.50
2019-04-10T03:12:11.089Z,48.50
2019-04-10T03:13:11.680Z,48.50
2019-04-10T03:14:10.644Z,48.50
2019-04-10T03:15:12.329Z,48.50
2019-04-10T03:16:11.817Z,48.50
2019-04-10T03:17:10.262Z,48.60
2019-04-10T03:18:10.268Z,48.63
2019-04-10T03:19:10.242Z,48.60
2019-04-10T03:20:10.235Z,48.60
2019-04-10T03:21:10.988Z,48.60
2019-04-10T03:22:10.481Z,48.60
2019-04-10T03:23:10.193Z,48.60
2019-04-10T03:24:10.186Z,48.60
2019-04-10T03:25:10.932Z,48.70
2019-04-10T03:26:10.211Z,48.70
2019-04-10T03:27:10.192Z,48.70
2019-04-10T03:28:11.090Z,48.70
2019-04-10T03:29:10.159Z,48.70
2019-04-10T03:30:12.513Z,48.70
2019-04-10T03:31:10.691Z,48.70
2019-04-10T03:32:10.448Z,48.70
2019-04-10T03:33:14.138Z,48.72
2019-04-10T03:34:13.298Z,48.70
2019-04-10T03:35:10.299Z,48.70
2019-04-10T03:36:10.054Z,48.83
2019-04-10T03:37:10.048Z,48.83
2019-04-10T03:38:10.044Z,48.80
2019-04-10T03:39:10.681Z,48.80
2019-04-10T03:40:11.137Z,48.80
2019-04-10T03:41:10.174Z,48.80
2019-04-10T03:42:09.997Z,48.90
2019-04-10T03:43:09.978Z,48.90
2019-04-10T03:44:10.317Z,48.90
2019-04-10T03:45:09.961Z,48.90
2019-04-10T03:46:10.957Z,48.93
2019-04-10T03:47:09.981Z,48.93
2019-04-10T03:48:09.931Z,48.93
2019-04-10T03:49:09.916Z,48.93
2019-04-10T03:50:10.790Z,48.93
2019-04-10T03:51:09.911Z,49.02
2019-04-10T03:52:10.108Z,49.02
2019-04-10T03:53:09.901Z,49.01
2019-04-10T03:54:11.031Z,49.02
2019-04-10T03:55:10.463Z,49.13
2019-04-10T03:56:09.849Z,49.13
2019-04-10T03:57:10.162Z,49.02
2019-04-10T03:58:10.050Z,49.02
2019-04-10T03:59:09.813Z,49.02
2019-04-10T04:00:09.901Z,49.13
2019-04-10T04:01:09.786Z,49.13
2019-04-10T04:02:09.780Z,49.02
2019-04-10T04:03:10.639Z,49.13
2019-04-10T04:04:09.786Z,49.13
2019-04-10T04:05:10.644Z,49.13
2019-04-10T04:06:09.784Z,49.13
2019-04-10T04:07:09.726Z,49.13
2019-04-10T04:08:10.893Z,49.13
2019-04-10T04:09:11.986Z,49.22
2019-04-10T04:10:10.764Z,49.22
2019-04-10T04:11:09.685Z,49.22
2019-04-10T04:12:10.541Z,49.22
2019-04-10T04:13:09.664Z,49.22
2019-04-10T04:14:10.314Z,49.22
2019-04-10T04:15:09.640Z,49.22
2019-04-10T04:16:09.632Z,49.22
2019-04-10T04:17:09.654Z,49.22
2019-04-10T04:18:09.606Z,49.22
2019-04-10T04:19:10.123Z,49.22
2019-04-10T04:20:10.710Z,49.22
2019-04-10T04:21:09.794Z,49.22
2019-04-10T04:22:09.563Z,49.22
2019-04-10T04:23:09.670Z,49.22
2019-04-10T04:24:09.572Z,49.22
2019-04-10T04:25:10.679Z,49.22
2019-04-10T04:26:10.429Z,49.22
2019-04-10T04:27:09.513Z,49.22
2019-04-10T04:28:09.731Z,49.33
2019-04-10T04:29:09.732Z,49.33
2019-04-10T04:30:10.516Z,49.33
2019-04-10T04:31:09.539Z,49.33
2019-04-10T04:32:09.455Z,49.33
2019-04-10T04:33:09.447Z,49.22
2019-04-10T04:34:10.026Z,49.22
2019-04-10T04:35:09.430Z,49.33
2019-04-10T04:36:10.320Z,49.33
2019-04-10T04:37:10.001Z,49.33
2019-04-10T04:38:09.400Z,49.33
2019-04-10T04:39:21.064Z,49.33
2019-04-10T04:40:11.103Z,49.33
2019-04-10T04:41:09.359Z,49.33
2019-04-10T04:42:09.350Z,49.33
2019-04-10T04:43:09.374Z,49.33
2019-04-10T04:44:10.235Z,49.33
2019-04-10T04:45:09.326Z,49.33
2019-04-10T04:46:10.094Z,49.33
2019-04-10T04:47:09.713Z,49.33
2019-04-10T04:48:09.851Z,49.43
2019-04-10T04:49:09.557Z,49.43
2019-04-10T04:50:09.748Z,49.43
2019-04-10T04:51:09.257Z,49.43
2019-04-10T04:52:11.203Z,49.33
2019-04-10T04:53:09.237Z,49.33
2019-04-10T04:54:09.250Z,49.33
2019-04-10T04:55:10.068Z,49.33
2019-04-10T04:56:09.483Z,49.33
2019-04-10T04:57:09.224Z,49.43
2019-04-10T04:58:09.700Z,49.43
2019-04-10T04:59:10.157Z,49.43
2019-04-10T05:00:09.503Z,49.43
2019-04-10T05:01:09.143Z,49.43
2019-04-10T05:02:10.086Z,49.43
2019-04-10T05:03:10.000Z,49.43
2019-04-10T05:04:09.115Z,49.43
2019-04-10T05:05:09.103Z,49.43
2019-04-10T05:06:09.218Z,49.53
2019-04-10T05:07:09.083Z,49.53
2019-04-10T05:08:09.925Z,49.53
2019-04-10T05:09:09.130Z,49.53
2019-04-10T05:10:09.140Z,49.53
2019-04-10T05:11:09.843Z,49.53
2019-04-10T05:12:09.325Z,49.53
2019-04-10T05:13:09.012Z,49.53
2019-04-10T05:14:09.060Z,49.53
2019-04-10T05:15:09.568Z,49.53
2019-04-10T05:16:10.074Z,49.53
2019-04-10T05:17:10.021Z,49.53
2019-04-10T05:18:08.957Z,49.63
2019-04-10T05:19:10.174Z,49.63
2019-04-10T05:20:09.211Z,49.53
2019-04-10T05:21:08.928Z,49.63
2019-04-10T05:22:08.922Z,49.63
2019-04-10T05:23:08.907Z,49.63
2019-04-10T05:24:08.892Z,49.53
2019-04-10T05:25:09.098Z,49.53
2019-04-10T05:26:08.888Z,49.63
2019-04-10T05:27:09.817Z,49.63
2019-04-10T05:28:08.853Z,49.63
2019-04-10T05:29:09.014Z,49.63
2019-04-10T05:30:08.835Z,49.63
2019-04-10T05:31:08.863Z,49.63
2019-04-10T05:32:09.290Z,49.63
2019-04-10T05:33:08.808Z,49.63
2019-04-10T05:34:09.339Z,49.63
2019-04-10T05:35:10.071Z,49.63
2019-04-10T05:36:08.976Z,49.63
2019-04-10T05:37:09.422Z,49.63
2019-04-10T05:38:08.747Z,49.63
2019-04-10T05:39:08.737Z,49.63
2019-04-10T05:40:09.713Z,49.63
2019-04-10T05:41:09.143Z,49.63
2019-04-10T05:42:08.732Z,49.63
2019-04-10T05:43:09.283Z,49.63
2019-04-10T05:44:09.517Z,49.63
2019-04-10T05:45:09.202Z,49.63
2019-04-10T05:46:08.658Z,49.63
2019-04-10T05:47:10.210Z,49.63
2019-04-10T05:48:08.888Z,49.63
2019-04-10T05:49:08.740Z,49.63
2019-04-10T05:50:08.648Z,49.63
2019-04-10T05:51:09.383Z,49.63
2019-04-10T05:52:08.596Z,49.53
2019-04-10T05:53:08.577Z,49.63
2019-04-10T05:54:08.608Z,49.63
2019-04-10T05:55:08.595Z,49.63
2019-04-10T05:56:08.590Z,49.63
2019-04-10T05:57:08.541Z,49.63
2019-04-10T05:58:09.218Z,49.63
2019-04-10T05:59:10.626Z,49.73
2019-04-10T06:00:08.506Z,49.63
2019-04-10T06:01:09.490Z,49.63
2019-04-10T06:02:09.392Z,49.63
2019-04-10T06:03:08.470Z,49.63
2019-04-10T06:04:09.260Z,49.73
2019-04-10T06:05:08.455Z,49.73
2019-04-10T06:06:08.464Z,49.63
2019-04-10T06:07:08.620Z,49.63
2019-04-10T06:08:08.419Z,49.63
2019-04-10T06:09:08.782Z,49.63
2019-04-10T06:10:10.590Z,49.63
2019-04-10T06:11:08.753Z,49.63
2019-04-10T06:12:08.374Z,49.63
2019-04-10T06:13:08.887Z,49.63
2019-04-10T06:14:08.355Z,49.63
2019-04-10T06:15:08.591Z,49.63
2019-04-10T06:16:08.338Z,49.73
2019-04-10T06:17:08.356Z,49.63
2019-04-10T06:18:09.147Z,49.73
2019-04-10T06:19:09.427Z,49.63
2019-04-10T06:20:09.212Z,49.73
2019-04-10T06:21:08.283Z,49.63
2019-04-10T06:22:09.768Z,49.73
2019-04-10T06:23:09.398Z,49.73
2019-04-10T06:24:08.259Z,49.63
2019-04-10T06:25:11.105Z,49.63
2019-04-10T06:26:08.244Z,49.73
2019-04-10T06:27:08.280Z,49.63
2019-04-10T06:28:09.365Z,49.63
2019-04-10T06:29:08.218Z,49.73
2019-04-10T06:30:08.183Z,49.73
2019-04-10T06:31:08.361Z,49.73
2019-04-10T06:32:09.410Z,49.73
2019-04-10T06:33:08.151Z,49.73
2019-04-10T06:34:08.889Z,49.73
2019-04-10T06:35:08.454Z,49.73
2019-04-10T06:36:09.182Z,49.73
2019-04-10T06:37:08.151Z,49.73
2019-04-10T06:38:08.101Z,49.73
2019-04-10T06:39:08.886Z,49.73
2019-04-10T06:40:16.981Z,49.73
2019-04-10T06:41:09.092Z,49.73
2019-04-10T06:42:08.598Z,49.73
2019-04-10T06:43:08.632Z,49.73
2019-04-10T06:44:08.051Z,49.73
2019-04-10T06:45:09.305Z,49.73
2019-04-10T06:46:08.444Z,49.73
2019-04-10T06:47:08.003Z,49.73
2019-04-10T06:48:08.949Z,49.63
2019-04-10T06:49:09.161Z,49.73
2019-04-10T06:50:07.971Z,49.63
2019-04-10T06:51:08.175Z,49.73
2019-04-10T06:52:08.102Z,49.73
2019-04-10T06:53:08.421Z,49.73
2019-04-10T06:54:11.030Z,49.73
2019-04-10T06:55:07.920Z,49.73
2019-04-10T06:56:09.806Z,49.73
2019-04-10T06:57:08.268Z,49.73
2019-04-10T06:58:07.885Z,49.73
2019-04-10T06:59:08.736Z,49.73
2019-04-10T07:00:12.207Z,49.73
2019-04-10T07:01:08.889Z,49.73
2019-04-10T07:02:16.628Z,49.73
2019-04-10T07:03:08.826Z,49.73
2019-04-10T07:04:08.409Z,49.83
2019-04-10T07:05:10.258Z,49.73
2019-04-10T07:06:15.634Z,49.73
2019-04-10T07:07:12.363Z,49.83
2019-04-10T07:08:16.049Z,49.73
2019-04-10T07:09:09.574Z,49.73
2019-04-10T07:10:20.549Z,49.73
2019-04-10T07:11:11.590Z,49.83
2019-04-10T07:12:08.062Z,49.83
2019-04-10T07:13:10.362Z,49.83
2019-04-10T07:14:12.611Z,49.83
2019-04-10T07:15:08.703Z,49.83
2019-04-10T07:16:09.547Z,49.83
2019-04-10T07:17:10.266Z,49.83
2019-04-10T07:18:11.907Z,49.73
2019-04-10T07:19:11.517Z,49.83
2019-04-10T07:20:07.647Z,49.83
2019-04-10T07:21:08.430Z,49.83
2019-04-10T07:22:12.296Z,49.83
2019-04-10T07:23:08.619Z,49.83
2019-04-10T07:24:09.499Z,49.83
2019-04-10T07:25:10.370Z,49.73
2019-04-10T07:26:07.586Z,49.73
2019-04-10T07:27:07.856Z,49.73
2019-04-10T07:28:09.725Z,49.83
2019-04-10T07:29:07.561Z,49.83
2019-04-10T07:30:07.759Z,49.83
2019-04-10T07:31:09.806Z,49.83
2019-04-10T07:32:09.619Z,49.83
2019-04-10T07:33:07.672Z,49.83
2019-04-10T07:34:07.498Z,49.83
2019-04-10T07:35:07.488Z,49.83
2019-04-10T07:36:10.717Z,49.83
2019-04-10T07:37:10.715Z,49.83
2019-04-10T07:38:07.743Z,49.83
2019-04-10T07:39:07.763Z,49.83
2019-04-10T07:40:07.973Z,49.73
2019-04-10T07:41:13.694Z,49.83
2019-04-10T07:42:09.560Z,49.83
2019-04-10T07:43:07.405Z,49.73
2019-04-10T07:44:08.017Z,49.73
2019-04-10T07:45:07.376Z,49.73
2019-04-10T07:46:07.369Z,49.73
2019-04-10T07:47:07.392Z,49.73
2019-04-10T07:48:08.607Z,49.83
2019-04-10T07:49:08.476Z,49.73
2019-04-10T07:50:08.779Z,49.83
2019-04-10T07:51:07.320Z,49.83
2019-04-10T07:52:08.339Z,49.83
2019-04-10T07:53:08.312Z,49.93
2019-04-10T07:54:08.170Z,49.93
2019-04-10T07:55:08.497Z,50.03
2019-04-10T07:56:12.905Z,50.13
2019-04-10T07:57:08.359Z,50.03
2019-04-10T07:58:07.264Z,50.03
2019-04-10T07:59:07.231Z,50.03
2019-04-10T08:00:07.217Z,50.03
2019-04-10T08:01:07.885Z,49.93
2019-04-10T08:02:09.798Z,50.03
2019-04-10T08:03:08.328Z,50.03
2019-04-10T08:04:08.252Z,49.93
2019-04-10T08:05:08.152Z,49.93
2019-04-10T08:06:07.152Z,49.93
2019-04-10T08:07:07.336Z,50.03
2019-04-10T08:08:07.135Z,50.03
2019-04-10T08:09:08.278Z,50.03
2019-04-10T08:10:07.906Z,50.03
2019-04-10T08:11:07.205Z,49.93
2019-04-10T08:12:07.290Z,50.03
2019-04-10T08:13:07.078Z,50.03
2019-04-10T08:14:08.419Z,50.03
2019-04-10T08:15:07.087Z,49.93
2019-04-10T08:16:08.071Z,50.03
2019-04-10T08:17:07.951Z,50.03
2019-04-10T08:18:07.025Z,49.93
2019-04-10T08:19:08.266Z,49.93
2019-04-10T08:20:07.910Z,50.03
2019-04-10T08:21:07.152Z,49.93
2019-04-10T08:22:08.194Z,49.93
2019-04-10T08:23:07.941Z,49.93
2019-04-10T08:24:07.397Z,50.03
2019-04-10T08:25:06.985Z,50.03
2019-04-10T08:26:08.115Z,49.93
2019-04-10T08:27:07.404Z,49.93
2019-04-10T08:28:07.245Z,49.93
2019-04-10T08:29:07.763Z,49.93
2019-04-10T08:30:07.832Z,49.93
2019-04-10T08:31:06.879Z,49.93
2019-04-10T08:32:07.768Z,49.93
2019-04-10T08:33:07.817Z,49.93
2019-04-10T08:34:06.857Z,49.93
2019-04-10T08:35:07.040Z,49.93
2019-04-10T08:36:07.435Z,49.93
2019-04-10T08:37:06.818Z,49.93
2019-04-10T08:38:07.685Z,49.93
2019-04-10T08:39:06.882Z,49.93
2019-04-10T08:40:07.452Z,49.93
2019-04-10T08:41:06.772Z,49.93
2019-04-10T08:42:06.771Z,49.83
2019-04-10T08:43:06.771Z,49.73
2019-04-10T08:44:06.780Z,49.83
2019-04-10T08:45:07.095Z,49.83
2019-04-10T08:46:06.721Z,49.93
2019-04-10T08:47:06.849Z,49.93
2019-04-10T08:48:07.926Z,50.03
2019-04-10T08:49:07.585Z,49.93
2019-04-10T08:50:07.642Z,49.83
2019-04-10T08:51:06.786Z,49.83
2019-04-10T08:52:06.695Z,49.83
2019-04-10T08:53:06.649Z,49.93
2019-04-10T08:54:07.823Z,49.83
2019-04-10T08:55:06.620Z,49.80
2019-04-10T08:56:06.634Z,49.93
2019-04-10T08:57:07.390Z,49.93
2019-04-10T08:58:06.630Z,49.93
2019-04-10T08:59:07.570Z,49.93
2019-04-10T09:00:06.583Z,49.93
2019-04-10T09:01:07.188Z,49.93
2019-04-10T09:02:06.548Z,49.93
2019-04-10T09:03:06.745Z,49.93
2019-04-10T09:04:07.689Z,49.93
2019-04-10T09:05:06.519Z,49.93
2019-04-10T09:06:07.192Z,49.93
2019-04-10T09:07:06.864Z,49.93
2019-04-10T09:08:06.553Z,49.93
2019-04-10T09:09:07.561Z,49.93
2019-04-10T09:10:06.496Z,49.93
2019-04-10T09:11:07.149Z,49.93
2019-04-10T09:12:07.272Z,49.93
2019-04-10T09:13:06.431Z,49.93
2019-04-10T09:14:06.422Z,49.93
2019-04-10T09:15:07.658Z,49.93
2019-04-10T09:16:06.705Z,49.93
2019-04-10T09:17:06.997Z,49.93
2019-04-10T09:18:06.379Z,50.03
2019-04-10T09:19:06.515Z,50.03
2019-04-10T09:20:06.701Z,49.83
2019-04-10T09:21:07.024Z,49.83
2019-04-10T09:22:06.338Z,49.93
2019-04-10T09:23:21.473Z,49.93
2019-04-10T09:24:08.203Z,49.83
2019-04-10T09:25:06.949Z,49.83
2019-04-10T09:26:06.324Z,49.93
2019-04-10T09:27:06.323Z,49.91
2019-04-10T09:28:06.490Z,49.93
2019-04-10T09:29:06.761Z,50.11
2019-04-10T09:30:06.693Z,50.01
2019-04-10T09:31:07.362Z,50.31
2019-04-10T09:32:06.473Z,50.21
2019-04-10T09:33:16.906Z,50.31
2019-04-10T09:34:07.561Z,50.71
2019-04-10T09:35:06.645Z,50.71
2019-04-10T09:36:06.183Z,50.51
2019-04-10T09:37:06.175Z,50.31
2019-04-10T09:38:06.324Z,50.01
2019-04-10T09:39:07.315Z,49.91
2019-04-10T09:40:06.152Z,50.01
2019-04-10T09:41:06.160Z,50.11
2019-04-10T09:42:06.743Z,50.11
2019-04-10T09:43:07.226Z,50.11
2019-04-10T09:44:06.634Z,50.11
2019-04-10T09:45:06.087Z,50.11
2019-04-10T09:46:06.472Z,50.11
2019-04-10T09:47:06.058Z,50.11
2019-04-10T09:48:06.431Z,50.11
2019-04-10T09:49:06.990Z,50.11
2019-04-10T09:50:06.037Z,50.11
2019-04-10T09:51:06.022Z,50.01
2019-04-10T09:52:06.860Z,50.11
2019-04-10T09:53:06.036Z,49.80
2019-04-10T09:54:06.015Z,49.71
2019-04-10T09:55:07.351Z,49.60
2019-04-10T09:56:05.961Z,49.71
2019-04-10T09:57:06.932Z,49.71
2019-04-10T09:58:06.793Z,49.80
2019-04-10T09:59:05.978Z,49.80
2019-04-10T10:00:05.925Z,49.80
2019-04-10T10:01:05.924Z,49.80
2019-04-10T10:02:06.995Z,49.80
2019-04-10T10:03:05.889Z,49.60
2019-04-10T10:04:06.935Z,49.51
2019-04-10T10:05:06.280Z,49.40
2019-04-10T10:06:06.903Z,49.40
2019-04-10T10:07:05.844Z,49.51
2019-04-10T10:08:07.417Z,49.51
2019-04-10T10:09:06.295Z,49.60
2019-04-10T10:10:06.572Z,49.60
2019-04-10T10:11:06.166Z,50.31
2019-04-10T10:12:05.789Z,50.51
2019-04-10T10:13:05.788Z,50.51
2019-04-10T10:14:06.164Z,50.41
2019-04-10T10:15:05.756Z,50.21
2019-04-10T10:16:06.390Z,50.61
2019-04-10T10:17:06.517Z,50.51
2019-04-10T10:18:05.727Z,50.51
2019-04-10T10:19:05.838Z,50.51
2019-04-10T10:20:05.797Z,50.41
2019-04-10T10:21:05.695Z,50.41
2019-04-10T10:22:06.108Z,50.41
2019-04-10T10:23:05.728Z,50.31
2019-04-10T10:24:06.558Z,50.31
2019-04-10T10:25:06.852Z,50.31
2019-04-10T10:26:05.863Z,50.21
2019-04-10T10:27:05.632Z,50.11
2019-04-10T10:28:05.620Z,50.11
2019-04-10T10:29:05.636Z,50.21
2019-04-10T10:30:05.609Z,50.21
2019-04-10T10:31:06.213Z,50.21
2019-04-10T10:32:05.678Z,50.11
2019-04-10T10:33:05.665Z,50.21
2019-04-10T10:34:06.061Z,50.21
2019-04-10T10:35:05.543Z,50.21
2019-04-10T10:36:05.556Z,50.21
2019-04-10T10:37:06.319Z,50.21
2019-04-10T10:38:05.548Z,50.31
2019-04-10T10:39:11.291Z,50.31
2019-04-10T10:40:08.336Z,50.38
2019-04-10T10:41:06.648Z,50.38
2019-04-10T10:42:05.558Z,50.48
2019-04-10T10:43:05.461Z,50.48
2019-04-10T10:44:05.449Z,50.59
2019-04-10T10:45:05.477Z,50.68
2019-04-10T10:46:05.422Z,50.59
2019-04-10T10:47:06.254Z,50.59
2019-04-10T10:48:08.344Z,50.68
2019-04-10T10:49:06.252Z,50.79
2019-04-10T10:50:05.377Z,50.79
2019-04-10T10:51:06.596Z,50.68
2019-04-10T10:52:05.357Z,50.59
2019-04-10T10:53:06.149Z,50.68
2019-04-10T10:54:05.677Z,50.59
2019-04-10T10:55:05.432Z,50.59
2019-04-10T10:56:06.360Z,50.48
2019-04-10T10:57:05.340Z,50.48
2019-04-10T10:58:05.813Z,50.48
2019-04-10T10:59:05.304Z,50.48
2019-04-10T11:00:06.223Z,50.48
2019-04-10T11:01:05.391Z,50.48
2019-04-10T11:02:06.342Z,50.38
2019-04-10T11:03:05.702Z,50.38
2019-04-10T11:04:05.229Z,50.38
2019-04-10T11:05:07.077Z,50.38
2019-04-10T11:06:05.208Z,50.38
2019-04-10T11:07:05.200Z,50.38
2019-04-10T11:08:05.498Z,50.29
2019-04-10T11:09:05.841Z,50.29
2019-04-10T11:10:06.800Z,50.29
2019-04-10T11:11:06.163Z,50.29
2019-04-10T11:12:06.540Z,50.18
2019-04-10T11:13:06.470Z,50.18
2019-04-10T11:14:05.938Z,50.18
2019-04-10T11:15:05.115Z,50.18
2019-04-10T11:16:06.352Z,50.18
2019-04-10T11:17:05.450Z,50.18
2019-04-10T11:18:06.336Z,50.18
2019-04-10T11:19:05.066Z,50.09
2019-04-10T11:20:05.987Z,50.09
2019-04-10T11:21:08.883Z,50.09
2019-04-10T11:22:07.257Z,50.09
2019-04-10T11:23:06.207Z,50.09
2019-04-10T11:24:05.015Z,50.09
2019-04-10T11:25:06.049Z,50.09
2019-04-10T11:26:05.096Z,49.98
2019-04-10T11:27:06.385Z,49.98
2019-04-10T11:28:05.970Z,49.98
2019-04-10T11:29:05.496Z,49.98
2019-04-10T11:30:05.452Z,49.98
2019-04-10T11:31:04.934Z,49.88
2019-04-10T11:32:06.786Z,49.88
2019-04-10T11:33:06.074Z,49.78
2019-04-10T11:34:06.300Z,49.76
2019-04-10T11:35:04.899Z,49.76
2019-04-10T11:36:06.407Z,49.76
2019-04-10T11:37:20.261Z,49.76
2019-04-10T11:38:06.100Z,49.76
2019-04-10T11:39:12.000Z,49.76
2019-04-10T11:40:06.897Z,49.76
2019-04-10T11:41:07.229Z,49.66
2019-04-10T11:42:06.556Z,49.66
2019-04-10T11:43:05.361Z,49.66
2019-04-10T11:44:04.841Z,49.66
2019-04-10T11:45:06.376Z,49.66
2019-04-10T11:46:04.772Z,49.66
2019-04-10T11:47:06.323Z,49.66
2019-04-10T11:48:05.968Z,49.66
2019-04-10T11:49:05.028Z,49.56
2019-04-10T11:50:09.134Z,49.56
2019-04-10T11:51:06.687Z,49.56
2019-04-10T11:52:06.235Z,49.56
2019-04-10T11:53:04.700Z,49.56
2019-04-10T11:54:08.602Z,49.46
2019-04-10T11:55:13.108Z,49.46
2019-04-10T11:56:05.835Z,49.46
2019-04-10T11:57:06.753Z,49.46
2019-04-10T11:58:05.561Z,49.46
2019-04-10T11:59:07.609Z,49.46
2019-04-10T12:00:08.814Z,49.36
2019-04-10T12:01:08.465Z,49.36
2019-04-10T12:02:06.616Z,49.36
2019-04-10T12:03:07.811Z,49.36
2019-04-10T12:04:06.725Z,49.36
2019-04-10T12:05:11.015Z,49.36
2019-04-10T12:06:06.236Z,49.36
2019-04-10T12:07:05.998Z,49.36
2019-04-10T12:08:27.989Z,49.36
2019-04-10T12:09:29.063Z,49.36
2019-04-10T12:11:08.417Z,49.16
2019-04-10T12:12:05.746Z,49.16
2019-04-10T12:13:04.488Z,49.16
2019-04-10T12:14:04.998Z,49.05
2019-04-10T12:15:04.464Z,49.16
2019-04-10T12:16:05.156Z,49.05
2019-04-10T12:17:05.429Z,49.05
2019-04-10T12:18:04.519Z,49.05
2019-04-10T12:19:04.709Z,49.05
2019-04-10T12:20:04.830Z,49.05
2019-04-10T12:21:05.196Z,49.16
2019-04-10T12:22:05.421Z,49.16
2019-04-10T12:23:04.964Z,49.05
2019-04-10T12:24:05.340Z,49.08
2019-04-10T12:25:04.840Z,49.18
2019-04-10T12:26:04.344Z,49.16
2019-04-10T12:27:04.611Z,49.18
2019-04-10T12:28:05.360Z,49.05
2019-04-10T12:29:04.491Z,49.05
2019-04-10T12:30:04.786Z,49.05
2019-04-10T12:31:04.298Z,49.05
2019-04-10T12:32:04.285Z,49.05
2019-04-10T12:33:05.300Z,49.05
2019-04-10T12:34:04.254Z,49.05
2019-04-10T12:35:04.690Z,48.96
2019-04-10T12:36:04.599Z,48.96
2019-04-10T12:37:04.223Z,48.96
2019-04-10T12:38:09.763Z,48.96
2019-04-10T12:39:05.712Z,48.96
2019-04-10T12:40:04.195Z,49.05
2019-04-10T12:41:04.198Z,48.96
2019-04-10T12:42:04.197Z,48.96
2019-04-10T12:43:04.963Z,49.05
2019-04-10T12:44:05.249Z,49.05
2019-04-10T12:45:04.856Z,48.96
2019-04-10T12:46:04.541Z,48.96
2019-04-10T12:47:04.165Z,48.96
2019-04-10T12:48:04.193Z,49.26
2019-04-10T12:49:05.270Z,49.05
2019-04-10T12:50:04.087Z,49.05
2019-04-10T12:51:04.075Z,49.05
2019-04-10T12:52:04.063Z,49.05
2019-04-10T12:53:05.246Z,48.96